createdAt,value
2019-04-20T00:00:07.564Z,12.50
2019-04-20T00:02:15.659Z,11.80
2019-04-20T00:04:24.427Z,11.53
2019-04-20T00:06:25.029Z,11.40
2019-04-20T00:08:34.716Z,10.10
2019-04-20T00:10:47.334Z,10.53
2019-04-20T00:12:58.429Z,15.33
2019-04-20T00:14:52.095Z,10.60
2019-04-20T00:16:57.394Z,11.30
2019-04-20T00:19:05.235Z,13.03
2019-04-20T00:21:38.836Z,11.47
2019-04-20T00:23:48.651Z,12.73
2019-04-20T00:26:17.309Z,11.43
2019-04-20T00:28:35.218Z,10.53
2019-04-20T00:30:46.639Z,11.60
2019-04-20T00:32:49.014Z,13.53
2019-04-20T00:34:41.673Z,10.17
2019-04-20T00:36:45.529Z,10.77
2019-04-20T00:38:56.575Z,13.23
2019-04-20T00:41:04.686Z,9.57
2019-04-20T00:43:06.561Z,14.37
2019-04-20T00:45:19.121Z,11.03
2019-04-20T00:47:30.890Z,12.20
2019-04-20T00:49:41.342Z,9.97
2019-04-20T00:51:52.572Z,11.87
2019-04-20T00:53:44.980Z,11.27
2019-04-20T00:55:46.458Z,17.10
2019-04-20T00:57:57.226Z,14.73
2019-04-20T01:00:17.566Z,12.67
2019-04-20T01:02:22.194Z,13.20
2019-04-20T01:04:34.261Z,12.10
2019-04-20T01:07:01.666Z,14.00
2019-04-20T01:09:20.333Z,11.90
2019-04-20T01:11:33.881Z,13.63
2019-04-20T01:13:42.091Z,13.73
2019-04-20T01:15:51.626Z,14.20
2019-04-20T01:17:48.250Z,12.20
2019-04-20T01:19:54.113Z,13.97
2019-04-20T01:22:05.255Z,11.50
2019-04-20T01:24:08.849Z,11.00
2019-04-20T01:26:17.307Z,13.10
2019-04-20T01:28:38.449Z,12.57
2019-04-20T01:30:35.295Z,14.57
2019-04-20T01:32:52.716Z,11.50
2019-04-20T01:34:54.392Z,12.07
2019-04-20T01:37:04.532Z,13.70
2019-04-20T01:39:09.212Z,19.50
2019-04-20T01:41:03.254Z,14.43
2019-04-20T01:43:09.985Z,10.80
2019-04-20T01:45:24.995Z,11.67
2019-04-20T01:47:23.735Z,12.67
2019-04-20T01:49:32.455Z,12.03
2019-04-20T01:51:49.160Z,13.70
2019-04-20T01:54:06.775Z,10.50
2019-04-20T01:56:20.552Z,11.53
2019-04-20T01:58:39.780Z,12.70
2019-04-20T02:00:56.365Z,10.20
2019-04-20T02:03:22.767Z,14.33
2019-04-20T02:05:32.077Z,12.63
2019-04-20T02:07:38.821Z,12.00
2019-04-20T02:09:48.499Z,12.33
2019-04-20T02:11:50.790Z,11.10
2019-04-20T02:13:58.790Z,13.17
2019-04-20T02:16:11.362Z,15.07
2019-04-20T02:18:22.783Z,13.90
2019-04-20T02:20:34.548Z,11.47
2019-04-20T02:22:38.565Z,16.50
2019-04-20T02:24:29.921Z,12.40
2019-04-20T02:26:36.658Z,12.27
2019-04-20T02:29:08.782Z,13.70
2019-04-20T02:31:32.661Z,12.50
2019-04-20T02:36:02.804Z,12.33
2019-04-20T02:38:10.427Z,15.10
2019-04-20T02:40:19.367Z,14.20
2019-04-20T02:42:26.541Z,17.70
2019-04-20T02:44:34.024Z,14.97
2019-04-20T02:46:45.306Z,13.63
2019-04-20T02:48:50.759Z,19.60
2019-04-20T02:50:52.913Z,14.13
2019-04-20T02:53:05.957Z,14.70
2019-04-20T02:55:09.437Z,14.47
2019-04-20T02:57:22.454Z,15.60
2019-04-20T02:59:47.541Z,14.40
2019-04-20T03:01:40.854Z,14.23
2019-04-20T03:03:35.952Z,13.33
2019-04-20T03:05:43.231Z,15.83
2019-04-20T03:07:57.423Z,17.30
2019-04-20T03:10:09.456Z,20.67
2019-04-20T03:12:18.749Z,27.87
2019-04-20T03:14:19.659Z,16.73
2019-04-20T03:16:28.525Z,16.33
2019-04-20T03:18:35.860Z,13.60
2019-04-20T03:20:46.645Z,15.27
2019-04-20T03:23:13.115Z,13.83
2019-04-20T03:24:59.766Z,14.00
2019-04-20T03:27:07.229Z,21.33
2019-04-20T03:29:40.802Z,18.60
2019-04-20T03:32:27.931Z,17.70
2019-04-20T03:34:25.515Z,15.60
2019-04-20T03:36:19.962Z,16.80
2019-04-20T03:38:17.321Z,16.07
2019-04-20T03:40:17.629Z,16.33
2019-04-20T03:42:12.045Z,14.77
2019-04-20T03:44:21.474Z,13.70
2019-04-20T03:46:35.728Z,17.73
2019-04-20T03:48:46.310Z,15.20
2019-04-20T03:50:56.462Z,16.13
2019-04-20T03:53:13.008Z,17.40
2019-04-20T03:55:21.093Z,14.10
2019-04-20T03:57:38.354Z,15.03
2019-04-20T03:59:56.120Z,16.17
2019-04-20T04:04:27.418Z,20.60
2019-04-20T04:06:24.189Z,16.90
2019-04-20T04:08:30.359Z,18.00
2019-04-20T04:10:48.526Z,15.27
2019-04-20T04:13:11.839Z,16.53
2019-04-20T04:15:17.268Z,19.33
2019-04-20T04:17:29.673Z,20.33
2019-04-20T04:19:36.570Z,18.30
2019-04-20T04:21:53.748Z,18.47
2019-04-20T04:24:02.435Z,16.47
2019-04-20T04:28:14.231Z,17.97
2019-04-20T04:30:22.119Z,20.17
2019-04-20T04:33:03.095Z,14.43
2019-04-20T04:34:47.845Z,20.13
2019-04-20T04:36:53.928Z,16.80
2019-04-20T04:38:58.874Z,18.70
2019-04-20T04:43:15.987Z,19.10
2019-04-20T04:45:09.172Z,14.77
2019-04-20T04:47:12.139Z,14.17
2019-04-20T04:49:24.953Z,17.87
2019-04-20T04:51:29.475Z,16.77
2019-04-20T04:53:44.222Z,21.33
2019-04-20T04:55:47.692Z,14.63
2019-04-20T04:57:45.713Z,17.50
2019-04-20T04:59:51.254Z,16.40
2019-04-20T05:01:58.124Z,21.20
2019-04-20T05:06:31.785Z,17.83
2019-04-20T05:08:32.638Z,16.23
2019-04-20T05:10:30.759Z,20.80
2019-04-20T05:12:37.713Z,20.13
2019-04-20T05:14:54.082Z,24.50
2019-04-20T05:17:04.552Z,16.63
2019-04-20T05:19:19.630Z,22.53
2019-04-20T05:21:30.317Z,16.93
2019-04-20T05:25:59.624Z,23.27
2019-04-20T05:28:03.069Z,17.80
2019-04-20T05:29:46.743Z,18.00
2019-04-20T05:31:58.663Z,20.33
2019-04-20T05:34:20.567Z,14.77
2019-04-20T05:36:23.460Z,13.10
2019-04-20T05:38:35.633Z,15.30
2019-04-20T05:40:38.989Z,18.23
2019-04-20T05:43:09.241Z,18.90
2019-04-20T05:45:11.812Z,25.63
2019-04-20T05:47:23.926Z,18.13
2019-04-20T05:49:30.387Z,13.40
2019-04-20T05:53:44.373Z,29.23
2019-04-20T05:55:50.281Z,20.50
2019-04-20T05:58:01.997Z,14.07
2019-04-20T06:00:08.373Z,13.03
2019-04-20T06:02:17.008Z,12.30
2019-04-20T06:04:27.949Z,15.60
2019-04-20T06:06:27.366Z,14.27
2019-04-20T06:08:53.703Z,14.50
2019-04-20T06:10:45.587Z,12.60
2019-04-20T06:12:45.533Z,13.40
2019-04-20T06:15:13.291Z,14.30
2019-04-20T06:17:31.671Z,11.43
2019-04-20T06:19:35.872Z,10.48
2019-04-20T06:21:52.650Z,11.43
2019-04-20T06:24:02.663Z,15.05
2019-04-20T06:28:14.886Z,13.75
2019-04-20T06:30:20.189Z,13.58
2019-04-20T06:33:16.143Z,12.55
2019-04-20T06:35:19.325Z,9.43
2019-04-20T06:37:21.408Z,11.28
2019-04-20T06:39:46.499Z,13.60
2019-04-20T06:41:54.336Z,9.30
2019-04-20T06:43:50.538Z,7.60
2019-04-20T06:46:01.932Z,8.50
2019-04-20T06:47:57.794Z,13.08
2019-04-20T06:50:11.133Z,7.78
2019-04-20T06:52:27.444Z,9.13
2019-04-20T06:54:48.303Z,11.53
2019-04-20T06:57:01.651Z,7.30
2019-04-20T06:59:11.944Z,9.20
2019-04-20T07:01:10.918Z,14.05
2019-04-20T07:03:37.730Z,12.75
2019-04-20T19:06:59.573Z,11.30
2019-04-20T19:09:09.269Z,12.37
2019-04-20T19:11:16.529Z,16.10
2019-04-20T19:13:43.479Z,42.13
2019-04-20T19:16:13.328Z,40.93
2019-04-20T19:18:23.921Z,18.80
2019-04-20T19:20:26.862Z,18.47
2019-04-20T19:22:30.217Z,18.10
2019-04-20T19:24:36.768Z,20.77
2019-04-20T19:26:46.655Z,37.77
2019-04-20T19:28:52.769Z,15.63
2019-04-20T19:31:05.783Z,21.30
2019-04-20T19:33:14.591Z,15.33
2019-04-20T19:35:23.890Z,19.30
2019-04-20T19:37:20.399Z,14.00
2019-04-20T19:39:32.119Z,16.10
2019-04-20T19:41:37.479Z,12.97
2019-04-20T19:43:41.364Z,22.37
2019-04-20T19:46:07.355Z,16.60
2019-04-20T19:48:00.148Z,18.50
2019-04-20T19:50:20.723Z,20.57
2019-04-20T19:52:25.215Z,17.83
2019-04-20T19:54:28.360Z,18.43
2019-04-20T19:56:35.909Z,14.83
2019-04-20T19:58:33.195Z,13.10
2019-04-20T20:00:46.393Z,13.23
2019-04-20T20:02:50.030Z,24.50
2019-04-20T20:05:00.394Z,17.37
2019-04-20T20:07:05.154Z,18.67
2019-04-20T20:09:11.201Z,20.90
2019-04-20T20:11:21.709Z,21.03
2019-04-20T20:13:20.384Z,27.20
2019-04-20T20:15:32.021Z,21.17
2019-04-20T20:17:55.684Z,21.33
2019-04-20T20:20:06.978Z,15.70
2019-04-20T20:22:00.225Z,18.97
2019-04-20T20:23:52.220Z,24.07
2019-04-20T20:25:57.040Z,20.10
2019-04-20T20:28:17.177Z,18.03
2019-04-20T20:30:17.899Z,19.87
2019-04-20T20:32:20.180Z,17.40
2019-04-20T20:34:26.687Z,15.83
2019-04-20T20:36:38.361Z,26.47
2019-04-20T20:38:38.954Z,21.17
2019-04-20T20:40:49.821Z,16.77
2019-04-20T20:43:00.473Z,18.60
2019-04-20T20:44:57.295Z,17.00
2019-04-20T20:47:05.837Z,25.40
2019-04-20T20:49:23.824Z,17.00
2019-04-20T20:51:34.485Z,18.60
2019-04-20T20:53:21.912Z,19.47
2019-04-20T20:55:30.876Z,19.13
2019-04-20T20:57:43.183Z,24.00
2019-04-20T20:59:42.944Z,19.20
2019-04-20T21:01:48.775Z,25.93
2019-04-20T21:03:49.011Z,24.70
2019-04-20T21:05:53.629Z,23.93
2019-04-20T21:07:57.961Z,24.20
2019-04-20T21:10:02.257Z,20.70
2019-04-20T21:12:12.301Z,24.20
2019-04-20T21:14:21.039Z,22.00
2019-04-20T21:16:24.796Z,19.23
2019-04-20T21:18:44.835Z,22.93
2019-04-20T21:20:47.858Z,17.97
2019-04-20T21:22:55.070Z,26.20
2019-04-20T21:24:48.243Z,20.00
2019-04-20T21:26:52.163Z,25.50
2019-04-20T21:28:57.524Z,24.77
2019-04-20T21:31:08.327Z,24.87
2019-04-20T21:33:09.349Z,24.20
2019-04-20T21:35:16.148Z,20.47
2019-04-20T21:37:23.981Z,18.13
2019-04-20T21:39:37.346Z,22.83
2019-04-20T21:41:32.063Z,31.50
2019-04-20T21:43:40.494Z,21.83
2019-04-20T21:45:49.798Z,28.53
2019-04-20T21:47:48.519Z,29.30
2019-04-20T21:50:05.826Z,26.70
2019-04-20T21:52:03.612Z,26.17
2019-04-20T21:54:05.567Z,23.80
2019-04-20T21:56:12.235Z,22.30
2019-04-20T21:58:19.344Z,22.13
2019-04-20T22:00:44.553Z,19.17
2019-04-20T22:02:56.183Z,22.17
2019-04-20T22:04:53.568Z,18.63
2019-04-20T22:06:58.313Z,25.93
2019-04-20T22:09:05.370Z,16.77
2019-04-20T22:11:09.561Z,20.73
2019-04-20T22:13:14.141Z,20.00
2019-04-20T22:15:25.976Z,24.13
2019-04-20T22:17:28.643Z,21.97
2019-04-20T22:19:41.954Z,18.40
2019-04-20T22:21:50.232Z,17.97
2019-04-20T22:23:59.953Z,15.70
2019-04-20T22:26:03.346Z,14.77
2019-04-20T22:27:58.551Z,19.97
2019-04-20T22:30:02.052Z,20.20
2019-04-20T22:32:11.601Z,18.43
2019-04-20T22:34:17.426Z,19.37
2019-04-20T22:36:20.197Z,19.87
2019-04-20T22:38:45.243Z,15.73
2019-04-20T22:40:49.035Z,13.97
2019-04-20T22:42:57.818Z,13.23
2019-04-20T22:45:05.266Z,19.63
2019-04-20T22:47:14.000Z,20.37
2019-04-20T22:49:29.032Z,17.30
2019-04-20T22:51:33.048Z,16.40
2019-04-20T22:53:35.587Z,16.47
2019-04-20T22:55:55.178Z,21.53
